Cochise, Arizona
Current Conditions -  °F | °C
As of 4:56 AM on Saturday 25 Oct 2014 (Local Time) from KFHU Reporting Station
Clear Clear  
Wind Chill: 61°   Ceiling: Unl
Heat Index: 61°   Visibility: 10mi
Dew Point: 44°   Wind: 5mph
Humidity: 54%   Direction: 220°SW
Pressure: 30.22"   Gusts: NA
Location:  32.11°N, 109.92°W
Report Text: KFHU 251156Z AUTO 22004KT 10SM CLR 16/07 A3022 RMK AO2 SLP176 T01610067 10194 20150 56004 $
Loading
Personal Weather Stations






























Interactive Weather Map
Tropical Storm Tracking
New forecast layout! Learn more

10-Day Weather Forecast

Advertisements
Track Severe Weather on mobile